sensor_id;sensor_type;location;lat;lon;timestamp;P1;durP1;ratioP1;P2;durP2;ratioP2
3841;SDS011;1936;47.074;15.336;2023-07-31T00:01:19;2.20;;;1.93;;
3841;SDS011;1936;47.074;15.336;2023-07-31T00:03:23;5.20;;;2.30;;
3841;SDS011;1936;47.074;15.336;2023-07-31T00:05:26;2.63;;;2.43;;
3841;SDS011;1936;47.074;15.336;2023-07-31T00:07:30;4.40;;;2.10;;
3841;SDS011;1936;47.074;15.336;2023-07-31T00:09:34;3.60;;;2.10;;
3841;SDS011;1936;47.074;15.336;2023-07-31T00:11:39;2.40;;;2.20;;
3841;SDS011;1936;47.074;15.336;2023-07-31T00:13:41;2.70;;;1.90;;
3841;SDS011;1936;47.074;15.336;2023-07-31T00:15:46;2.00;;;1.80;;
3841;SDS011;1936;47.074;15.336;2023-07-31T00:17:50;2.53;;;2.33;;
3841;SDS011;1936;47.074;15.336;2023-07-31T00:19:53;2.50;;;2.00;;
3841;SDS011;1936;47.074;15.336;2023-07-31T00:21:56;7.10;;;2.00;;
3841;SDS011;1936;47.074;15.336;2023-07-31T00:23:59;2.60;;;2.03;;
3841;SDS011;1936;47.074;15.336;2023-07-31T00:26:03;4.60;;;2.10;;
3841;SDS011;1936;47.074;15.336;2023-07-31T00:28:06;2.87;;;2.07;;
3841;SDS011;1936;47.074;15.336;2023-07-31T00:30:10;3.50;;;2.53;;
3841;SDS011;1936;47.074;15.336;2023-07-31T00:32:15;3.50;;;2.00;;
3841;SDS011;1936;47.074;15.336;2023-07-31T00:34:18;4.53;;;2.00;;
3841;SDS011;1936;47.074;15.336;2023-07-31T00:36:22;5.50;;;2.50;;
3841;SDS011;1936;47.074;15.336;2023-07-31T00:38:25;4.50;;;2.07;;
3841;SDS011;1936;47.074;15.336;2023-07-31T00:40:29;2.90;;;2.60;;
3841;SDS011;1936;47.074;15.336;2023-07-31T00:42:32;4.83;;;3.00;;
3841;SDS011;1936;47.074;15.336;2023-07-31T00:44:36;10.97;;;2.50;;
3841;SDS011;1936;47.074;15.336;2023-07-31T00:46:39;4.10;;;3.00;;
3841;SDS011;1936;47.074;15.336;2023-07-31T00:48:44;3.37;;;2.10;;
3841;SDS011;1936;47.074;15.336;2023-07-31T00:50:47;7.03;;;2.50;;
3841;SDS011;1936;47.074;15.336;2023-07-31T00:52:51;2.57;;;2.33;;
3841;SDS011;1936;47.074;15.336;2023-07-31T00:54:54;3.97;;;2.73;;
3841;SDS011;1936;47.074;15.336;2023-07-31T00:56:57;4.80;;;3.13;;
3841;SDS011;1936;47.074;15.336;2023-07-31T00:59:02;7.10;;;2.97;;
3841;SDS011;1936;47.074;15.336;2023-07-31T01:01:05;5.40;;;2.70;;
3841;SDS011;1936;47.074;15.336;2023-07-31T01:03:08;3.20;;;2.57;;
3841;SDS011;1936;47.074;15.336;2023-07-31T01:05:13;4.13;;;2.00;;
3841;SDS011;1936;47.074;15.336;2023-07-31T01:07:18;3.47;;;1.77;;
3841;SDS011;1936;47.074;15.336;2023-07-31T01:09:29;3.57;;;3.10;;
3841;SDS011;1936;47.074;15.336;2023-07-31T01:11:38;3.33;;;1.57;;
3841;SDS011;1936;47.074;15.336;2023-07-31T01:13:51;2.40;;;1.80;;
3841;SDS011;1936;47.074;15.336;2023-07-31T01:15:55;9.30;;;2.37;;
3841;SDS011;1936;47.074;15.336;2023-07-31T01:17:58;3.17;;;1.77;;
3841;SDS011;1936;47.074;15.336;2023-07-31T01:20:03;2.33;;;1.73;;
3841;SDS011;1936;47.074;15.336;2023-07-31T01:22:15;4.63;;;2.17;;
3841;SDS011;1936;47.074;15.336;2023-07-31T01:24:36;6.13;;;2.20;;
3841;SDS011;1936;47.074;15.336;2023-07-31T01:26:47;2.60;;;2.17;;
3841;SDS011;1936;47.074;15.336;2023-07-31T01:28:56;4.90;;;2.80;;
3841;SDS011;1936;47.074;15.336;2023-07-31T01:31:04;4.80;;;2.40;;
3841;SDS011;1936;47.074;15.336;2023-07-31T01:33:13;3.37;;;2.17;;
3841;SDS011;1936;47.074;15.336;2023-07-31T01:35:17;6.40;;;2.30;;
3841;SDS011;1936;47.074;15.336;2023-07-31T01:37:21;3.53;;;2.27;;
3841;SDS011;1936;47.074;15.336;2023-07-31T01:39:30;3.07;;;2.27;;
3841;SDS011;1936;47.074;15.336;2023-07-31T01:41:33;3.23;;;1.93;;
3841;SDS011;1936;47.074;15.336;2023-07-31T01:43:38;1.93;;;1.73;;
3841;SDS011;1936;47.074;15.336;2023-07-31T01:45:41;3.50;;;2.30;;
3841;SDS011;1936;47.074;15.336;2023-07-31T01:47:45;4.30;;;2.47;;
3841;SDS011;1936;47.074;15.336;2023-07-31T01:49:48;4.97;;;2.30;;
3841;SDS011;1936;47.074;15.336;2023-07-31T01:51:52;5.07;;;2.70;;
3841;SDS011;1936;47.074;15.336;2023-07-31T01:53:55;3.80;;;2.20;;
3841;SDS011;1936;47.074;15.336;2023-07-31T01:55:58;2.80;;;1.50;;
3841;SDS011;1936;47.074;15.336;2023-07-31T01:58:01;5.30;;;2.20;;
3841;SDS011;1936;47.074;15.336;2023-07-31T02:00:07;1.80;;;1.70;;
3841;SDS011;1936;47.074;15.336;2023-07-31T02:02:11;4.10;;;1.60;;
3841;SDS011;1936;47.074;15.336;2023-07-31T02:04:15;6.33;;;2.70;;
3841;SDS011;1936;47.074;15.336;2023-07-31T02:06:19;3.87;;;2.17;;
3841;SDS011;1936;47.074;15.336;2023-07-31T02:08:24;4.47;;;2.83;;
3841;SDS011;1936;47.074;15.336;2023-07-31T02:10:27;4.00;;;2.13;;
3841;SDS011;1936;47.074;15.336;2023-07-31T02:12:30;2.57;;;2.17;;
3841;SDS011;1936;47.074;15.336;2023-07-31T02:14:35;2.97;;;2.67;;
3841;SDS011;1936;47.074;15.336;2023-07-31T02:16:39;4.23;;;1.87;;
3841;SDS011;1936;47.074;15.336;2023-07-31T02:18:44;3.10;;;2.50;;
3841;SDS011;1936;47.074;15.336;2023-07-31T02:20:49;2.63;;;2.27;;
3841;SDS011;1936;47.074;15.336;2023-07-31T02:22:52;2.33;;;2.13;;
3841;SDS011;1936;47.074;15.336;2023-07-31T02:24:56;3.80;;;2.63;;
3841;SDS011;1936;47.074;15.336;2023-07-31T02:26:59;5.47;;;2.40;;
3841;SDS011;1936;47.074;15.336;2023-07-31T02:29:03;6.53;;;2.50;;
3841;SDS011;1936;47.074;15.336;2023-07-31T02:31:05;2.50;;;1.93;;
3841;SDS011;1936;47.074;15.336;2023-07-31T02:33:10;4.00;;;2.60;;
3841;SDS011;1936;47.074;15.336;2023-07-31T02:35:13;3.67;;;2.43;;
3841;SDS011;1936;47.074;15.336;2023-07-31T02:37:17;4.20;;;2.07;;
3841;SDS011;1936;47.074;15.336;2023-07-31T02:39:20;5.53;;;2.40;;
3841;SDS011;1936;47.074;15.336;2023-07-31T02:41:24;2.60;;;2.40;;
3841;SDS011;1936;47.074;15.336;2023-07-31T02:43:26;5.60;;;2.17;;
3841;SDS011;1936;47.074;15.336;2023-07-31T02:45:29;5.93;;;2.20;;
3841;SDS011;1936;47.074;15.336;2023-07-31T02:47:32;3.00;;;2.00;;
3841;SDS011;1936;47.074;15.336;2023-07-31T02:49:37;7.30;;;2.13;;
3841;SDS011;1936;47.074;15.336;2023-07-31T02:51:40;4.10;;;2.30;;
3841;SDS011;1936;47.074;15.336;2023-07-31T02:53:43;2.93;;;2.20;;
3841;SDS011;1936;47.074;15.336;2023-07-31T02:55:47;3.60;;;2.50;;
3841;SDS011;1936;47.074;15.336;2023-07-31T02:57:50;4.00;;;2.40;;
3841;SDS011;1936;47.074;15.336;2023-07-31T02:59:54;5.27;;;2.47;;
3841;SDS011;1936;47.074;15.336;2023-07-31T03:01:56;5.13;;;2.57;;
3841;SDS011;1936;47.074;15.336;2023-07-31T03:03:59;5.07;;;2.90;;
3841;SDS011;1936;47.074;15.336;2023-07-31T03:06:04;3.20;;;1.97;;
3841;SDS011;1936;47.074;15.336;2023-07-31T03:08:08;5.60;;;2.77;;
3841;SDS011;1936;47.074;15.336;2023-07-31T03:10:11;3.50;;;2.70;;
3841;SDS011;1936;47.074;15.336;2023-07-31T03:12:14;5.83;;;2.70;;
3841;SDS011;1936;47.074;15.336;2023-07-31T03:14:17;5.77;;;3.03;;
3841;SDS011;1936;47.074;15.336;2023-07-31T03:16:20;5.57;;;2.17;;
3841;SDS011;1936;47.074;15.336;2023-07-31T03:18:24;5.10;;;2.40;;
3841;SDS011;1936;47.074;15.336;2023-07-31T03:20:27;5.57;;;1.77;;
3841;SDS011;1936;47.074;15.336;2023-07-31T03:22:32;5.17;;;1.77;;
3841;SDS011;1936;47.074;15.336;2023-07-31T03:24:36;7.80;;;2.13;;
3841;SDS011;1936;47.074;15.336;2023-07-31T03:26:39;3.47;;;2.23;;
3841;SDS011;1936;47.074;15.336;2023-07-31T03:28:44;4.33;;;2.80;;
3841;SDS011;1936;47.074;15.336;2023-07-31T03:30:47;4.07;;;2.80;;
3841;SDS011;1936;47.074;15.336;2023-07-31T03:32:50;2.03;;;1.90;;
3841;SDS011;1936;47.074;15.336;2023-07-31T03:34:54;2.50;;;2.30;;
3841;SDS011;1936;47.074;15.336;2023-07-31T03:36:57;2.17;;;1.97;;
3841;SDS011;1936;47.074;15.336;2023-07-31T03:39:02;3.67;;;3.13;;
3841;SDS011;1936;47.074;15.336;2023-07-31T03:41:06;3.53;;;2.50;;
3841;SDS011;1936;47.074;15.336;2023-07-31T03:43:10;3.07;;;2.10;;
3841;SDS011;1936;47.074;15.336;2023-07-31T03:45:13;6.33;;;2.30;;
3841;SDS011;1936;47.074;15.336;2023-07-31T03:47:17;2.87;;;2.67;;
3841;SDS011;1936;47.074;15.336;2023-07-31T03:49:20;6.70;;;2.20;;
3841;SDS011;1936;47.074;15.336;2023-07-31T03:51:24;5.17;;;2.20;;
3841;SDS011;1936;47.074;15.336;2023-07-31T03:53:27;4.47;;;2.73;;
3841;SDS011;1936;47.074;15.336;2023-07-31T03:55:32;5.47;;;2.87;;
3841;SDS011;1936;47.074;15.336;2023-07-31T03:57:35;4.73;;;2.07;;
3841;SDS011;1936;47.074;15.336;2023-07-31T03:59:39;9.83;;;2.63;;
3841;SDS011;1936;47.074;15.336;2023-07-31T04:01:42;5.40;;;2.37;;
3841;SDS011;1936;47.074;15.336;2023-07-31T04:03:46;3.20;;;2.50;;
3841;SDS011;1936;47.074;15.336;2023-07-31T04:05:49;7.37;;;2.37;;
3841;SDS011;1936;47.074;15.336;2023-07-31T04:07:53;2.30;;;2.10;;
3841;SDS011;1936;47.074;15.336;2023-07-31T04:09:56;5.37;;;2.70;;
3841;SDS011;1936;47.074;15.336;2023-07-31T04:12:05;3.40;;;3.10;;
3841;SDS011;1936;47.074;15.336;2023-07-31T04:14:09;5.30;;;2.83;;
3841;SDS011;1936;47.074;15.336;2023-07-31T04:16:12;5.00;;;3.10;;
3841;SDS011;1936;47.074;15.336;2023-07-31T04:18:15;5.67;;;2.80;;
3841;SDS011;1936;47.074;15.336;2023-07-31T04:20:18;6.80;;;3.23;;
3841;SDS011;1936;47.074;15.336;2023-07-31T04:22:21;8.80;;;3.10;;
3841;SDS011;1936;47.074;15.336;2023-07-31T04:24:25;2.83;;;2.53;;
3841;SDS011;1936;47.074;15.336;2023-07-31T04:26:28;12.83;;;3.70;;
3841;SDS011;1936;47.074;15.336;2023-07-31T04:28:33;7.03;;;2.77;;
3841;SDS011;1936;47.074;15.336;2023-07-31T04:30:36;11.20;;;3.50;;
3841;SDS011;1936;47.074;15.336;2023-07-31T04:32:39;7.80;;;2.70;;
3841;SDS011;1936;47.074;15.336;2023-07-31T04:34:42;2.80;;;2.30;;
3841;SDS011;1936;47.074;15.336;2023-07-31T04:36:46;12.00;;;3.03;;
3841;SDS011;1936;47.074;15.336;2023-07-31T04:38:49;6.10;;;3.40;;
3841;SDS011;1936;47.074;15.336;2023-07-31T04:40:52;3.60;;;2.80;;
3841;SDS011;1936;47.074;15.336;2023-07-31T04:42:56;6.03;;;2.57;;
3841;SDS011;1936;47.074;15.336;2023-07-31T04:45:00;8.53;;;3.10;;
3841;SDS011;1936;47.074;15.336;2023-07-31T04:47:03;4.00;;;2.23;;
3841;SDS011;1936;47.074;15.336;2023-07-31T04:49:06;6.60;;;2.70;;
3841;SDS011;1936;47.074;15.336;2023-07-31T04:51:10;3.73;;;2.30;;
3841;SDS011;1936;47.074;15.336;2023-07-31T04:53:13;3.53;;;2.50;;
3841;SDS011;1936;47.074;15.336;2023-07-31T04:55:16;17.30;;;3.30;;
3841;SDS011;1936;47.074;15.336;2023-07-31T04:57:19;4.07;;;2.73;;
3841;SDS011;1936;47.074;15.336;2023-07-31T04:59:21;4.53;;;2.37;;
3841;SDS011;1936;47.074;15.336;2023-07-31T05:01:26;11.03;;;2.53;;
3841;SDS011;1936;47.074;15.336;2023-07-31T05:03:30;7.30;;;3.00;;
3841;SDS011;1936;47.074;15.336;2023-07-31T05:05:33;9.80;;;2.60;;
3841;SDS011;1936;47.074;15.336;2023-07-31T05:07:37;2.90;;;2.60;;
3841;SDS011;1936;47.074;15.336;2023-07-31T05:09:40;8.60;;;2.50;;
3841;SDS011;1936;47.074;15.336;2023-07-31T05:11:44;5.00;;;2.33;;
3841;SDS011;1936;47.074;15.336;2023-07-31T05:13:47;2.60;;;2.30;;
3841;SDS011;1936;47.074;15.336;2023-07-31T05:15:51;3.60;;;2.30;;
3841;SDS011;1936;47.074;15.336;2023-07-31T05:17:56;4.67;;;2.43;;
3841;SDS011;1936;47.074;15.336;2023-07-31T05:19:59;3.17;;;2.67;;
3841;SDS011;1936;47.074;15.336;2023-07-31T05:22:03;6.20;;;2.57;;
3841;SDS011;1936;47.074;15.336;2023-07-31T05:24:07;4.27;;;2.20;;
3841;SDS011;1936;47.074;15.336;2023-07-31T05:26:10;7.97;;;3.37;;
3841;SDS011;1936;47.074;15.336;2023-07-31T05:28:13;4.43;;;3.60;;
3841;SDS011;1936;47.074;15.336;2023-07-31T05:30:17;7.33;;;2.17;;
3841;SDS011;1936;47.074;15.336;2023-07-31T05:32:20;2.43;;;2.23;;
3841;SDS011;1936;47.074;15.336;2023-07-31T05:34:26;5.00;;;2.63;;
3841;SDS011;1936;47.074;15.336;2023-07-31T05:36:29;6.93;;;2.27;;
3841;SDS011;1936;47.074;15.336;2023-07-31T05:38:33;2.27;;;2.03;;
3841;SDS011;1936;47.074;15.336;2023-07-31T05:40:36;4.67;;;2.53;;
3841;SDS011;1936;47.074;15.336;2023-07-31T05:42:39;5.60;;;2.50;;
3841;SDS011;1936;47.074;15.336;2023-07-31T05:44:43;2.20;;;1.90;;
3841;SDS011;1936;47.074;15.336;2023-07-31T05:46:47;3.73;;;2.00;;
3841;SDS011;1936;47.074;15.336;2023-07-31T05:48:50;3.00;;;2.60;;
3841;SDS011;1936;47.074;15.336;2023-07-31T05:50:55;2.77;;;2.10;;
3841;SDS011;1936;47.074;15.336;2023-07-31T05:52:58;3.50;;;3.20;;
3841;SDS011;1936;47.074;15.336;2023-07-31T05:55:01;3.60;;;2.43;;
3841;SDS011;1936;47.074;15.336;2023-07-31T05:57:05;2.97;;;1.70;;
3841;SDS011;1936;47.074;15.336;2023-07-31T05:59:09;2.60;;;2.27;;
3841;SDS011;1936;47.074;15.336;2023-07-31T06:01:15;2.20;;;2.00;;
3841;SDS011;1936;47.074;15.336;2023-07-31T06:03:18;2.33;;;2.13;;
3841;SDS011;1936;47.074;15.336;2023-07-31T06:05:22;2.97;;;2.17;;
3841;SDS011;1936;47.074;15.336;2023-07-31T06:07:27;7.20;;;2.30;;
3841;SDS011;1936;47.074;15.336;2023-07-31T06:09:30;4.73;;;2.00;;
3841;SDS011;1936;47.074;15.336;2023-07-31T06:11:34;1.63;;;1.53;;
3841;SDS011;1936;47.074;15.336;2023-07-31T06:13:37;3.13;;;2.17;;
3841;SDS011;1936;47.074;15.336;2023-07-31T06:15:44;5.67;;;2.57;;
3841;SDS011;1936;47.074;15.336;2023-07-31T06:17:48;9.80;;;2.00;;
3841;SDS011;1936;47.074;15.336;2023-07-31T06:19:53;3.47;;;2.40;;
3841;SDS011;1936;47.074;15.336;2023-07-31T06:21:56;5.50;;;1.70;;
3841;SDS011;1936;47.074;15.336;2023-07-31T06:24:01;3.90;;;2.77;;
3841;SDS011;1936;47.074;15.336;2023-07-31T06:26:05;9.40;;;3.50;;
3841;SDS011;1936;47.074;15.336;2023-07-31T06:28:08;3.40;;;2.27;;
3841;SDS011;1936;47.074;15.336;2023-07-31T06:30:12;6.60;;;2.57;;
3841;SDS011;1936;47.074;15.336;2023-07-31T06:32:15;3.47;;;2.20;;
3841;SDS011;1936;47.074;15.336;2023-07-31T06:34:19;4.63;;;2.53;;
3841;SDS011;1936;47.074;15.336;2023-07-31T06:36:22;3.20;;;1.77;;
3841;SDS011;1936;47.074;15.336;2023-07-31T06:38:26;2.40;;;2.03;;
3841;SDS011;1936;47.074;15.336;2023-07-31T06:40:31;5.00;;;2.33;;
3841;SDS011;1936;47.074;15.336;2023-07-31T06:42:34;1.93;;;1.70;;
3841;SDS011;1936;47.074;15.336;2023-07-31T06:44:38;4.43;;;1.90;;
3841;SDS011;1936;47.074;15.336;2023-07-31T06:46:42;3.00;;;1.60;;
3841;SDS011;1936;47.074;15.336;2023-07-31T06:48:45;3.97;;;1.50;;
3841;SDS011;1936;47.074;15.336;2023-07-31T06:50:49;3.40;;;1.20;;
3841;SDS011;1936;47.074;15.336;2023-07-31T06:52:52;1.70;;;1.60;;
3841;SDS011;1936;47.074;15.336;2023-07-31T06:55:01;2.87;;;1.53;;
3841;SDS011;1936;47.074;15.336;2023-07-31T06:57:07;2.90;;;1.77;;
3841;SDS011;1936;47.074;15.336;2023-07-31T06:59:11;1.83;;;1.47;;
3841;SDS011;1936;47.074;15.336;2023-07-31T07:01:14;4.00;;;1.80;;
3841;SDS011;1936;47.074;15.336;2023-07-31T07:03:18;5.60;;;2.07;;
3841;SDS011;1936;47.074;15.336;2023-07-31T07:05:22;3.37;;;1.47;;
3841;SDS011;1936;47.074;15.336;2023-07-31T07:07:25;1.97;;;1.80;;
3841;SDS011;1936;47.074;15.336;2023-07-31T07:09:29;3.40;;;1.57;;
3841;SDS011;1936;47.074;15.336;2023-07-31T07:11:32;2.10;;;1.90;;
3841;SDS011;1936;47.074;15.336;2023-07-31T07:13:37;4.13;;;1.80;;
3841;SDS011;1936;47.074;15.336;2023-07-31T07:15:41;2.30;;;1.40;;
3841;SDS011;1936;47.074;15.336;2023-07-31T07:17:44;1.60;;;1.30;;
3841;SDS011;1936;47.074;15.336;2023-07-31T07:19:48;2.30;;;2.10;;
3841;SDS011;1936;47.074;15.336;2023-07-31T07:21:51;2.77;;;1.70;;
3841;SDS011;1936;47.074;15.336;2023-07-31T07:23:55;2.07;;;1.80;;
3841;SDS011;1936;47.074;15.336;2023-07-31T07:25:58;2.10;;;1.40;;
3841;SDS011;1936;47.074;15.336;2023-07-31T07:28:02;1.83;;;1.60;;
3841;SDS011;1936;47.074;15.336;2023-07-31T07:30:07;3.07;;;1.60;;
3841;SDS011;1936;47.074;15.336;2023-07-31T07:32:12;2.87;;;2.13;;
3841;SDS011;1936;47.074;15.336;2023-07-31T07:34:15;1.97;;;1.77;;
3841;SDS011;1936;47.074;15.336;2023-07-31T07:36:19;4.20;;;2.50;;
3841;SDS011;1936;47.074;15.336;2023-07-31T07:38:22;2.77;;;1.53;;
3841;SDS011;1936;47.074;15.336;2023-07-31T07:40:26;2.23;;;1.80;;
3841;SDS011;1936;47.074;15.336;2023-07-31T07:42:29;2.10;;;1.50;;
3841;SDS011;1936;47.074;15.336;2023-07-31T07:44:34;5.97;;;2.00;;
3841;SDS011;1936;47.074;15.336;2023-07-31T07:46:39;1.87;;;1.67;;
3841;SDS011;1936;47.074;15.336;2023-07-31T07:48:43;2.53;;;1.80;;
3841;SDS011;1936;47.074;15.336;2023-07-31T07:50:47;2.83;;;1.33;;
3841;SDS011;1936;47.074;15.336;2023-07-31T07:52:52;1.60;;;1.50;;
3841;SDS011;1936;47.074;15.336;2023-07-31T07:54:55;3.40;;;1.73;;
3841;SDS011;1936;47.074;15.336;2023-07-31T07:56:59;1.40;;;1.30;;
3841;SDS011;1936;47.074;15.336;2023-07-31T07:59:02;1.97;;;1.63;;
3841;SDS011;1936;47.074;15.336;2023-07-31T08:01:06;2.00;;;1.90;;
3841;SDS011;1936;47.074;15.336;2023-07-31T08:03:11;2.07;;;1.60;;
3841;SDS011;1936;47.074;15.336;2023-07-31T08:05:15;2.27;;;1.90;;
3841;SDS011;1936;47.074;15.336;2023-07-31T08:07:20;2.60;;;1.70;;
3841;SDS011;1936;47.074;15.336;2023-07-31T08:09:24;1.90;;;1.80;;
3841;SDS011;1936;47.074;15.336;2023-07-31T08:11:27;2.10;;;1.73;;
3841;SDS011;1936;47.074;15.336;2023-07-31T08:13:30;3.20;;;1.70;;
3841;SDS011;1936;47.074;15.336;2023-07-31T08:15:34;2.90;;;1.43;;
3841;SDS011;1936;47.074;15.336;2023-07-31T08:17:37;2.40;;;1.97;;
3841;SDS011;1936;47.074;15.336;2023-07-31T08:19:42;4.30;;;1.47;;
3841;SDS011;1936;47.074;15.336;2023-07-31T08:21:47;1.60;;;1.50;;
3841;SDS011;1936;47.074;15.336;2023-07-31T08:23:51;2.10;;;1.90;;
3841;SDS011;1936;47.074;15.336;2023-07-31T08:25:54;1.83;;;1.73;;
3841;SDS011;1936;47.074;15.336;2023-07-31T08:27:58;1.43;;;1.30;;
3841;SDS011;1936;47.074;15.336;2023-07-31T08:30:02;1.77;;;1.60;;
3841;SDS011;1936;47.074;15.336;2023-07-31T08:32:06;4.70;;;1.80;;
3841;SDS011;1936;47.074;15.336;2023-07-31T08:34:10;1.93;;;1.83;;
3841;SDS011;1936;47.074;15.336;2023-07-31T08:36:15;4.40;;;2.07;;
3841;SDS011;1936;47.074;15.336;2023-07-31T08:38:19;2.40;;;1.73;;
3841;SDS011;1936;47.074;15.336;2023-07-31T08:40:22;1.63;;;1.53;;
3841;SDS011;1936;47.074;15.336;2023-07-31T08:42:26;4.53;;;1.47;;
3841;SDS011;1936;47.074;15.336;2023-07-31T08:44:32;1.50;;;1.30;;
3841;SDS011;1936;47.074;15.336;2023-07-31T08:46:36;1.70;;;1.60;;
3841;SDS011;1936;47.074;15.336;2023-07-31T08:48:41;2.13;;;1.50;;
3841;SDS011;1936;47.074;15.336;2023-07-31T08:50:46;2.37;;;1.80;;
3841;SDS011;1936;47.074;15.336;2023-07-31T08:52:51;2.60;;;1.80;;
3841;SDS011;1936;47.074;15.336;2023-07-31T08:54:58;1.90;;;1.43;;
3841;SDS011;1936;47.074;15.336;2023-07-31T08:57:02;2.00;;;1.80;;
3841;SDS011;1936;47.074;15.336;2023-07-31T08:59:07;5.63;;;1.60;;
3841;SDS011;1936;47.074;15.336;2023-07-31T09:01:12;2.80;;;1.93;;
3841;SDS011;1936;47.074;15.336;2023-07-31T09:03:17;2.07;;;1.40;;
3841;SDS011;1936;47.074;15.336;2023-07-31T09:05:21;1.40;;;1.30;;
3841;SDS011;1936;47.074;15.336;2023-07-31T09:07:25;2.00;;;1.80;;
3841;SDS011;1936;47.074;15.336;2023-07-31T09:09:31;2.13;;;1.93;;
3841;SDS011;1936;47.074;15.336;2023-07-31T09:11:35;2.37;;;1.80;;
3841;SDS011;1936;47.074;15.336;2023-07-31T09:13:39;3.00;;;1.70;;
3841;SDS011;1936;47.074;15.336;2023-07-31T09:15:44;3.87;;;1.60;;
3841;SDS011;1936;47.074;15.336;2023-07-31T09:17:50;1.47;;;1.30;;
3841;SDS011;1936;47.074;15.336;2023-07-31T09:20:12;1.60;;;1.50;;
3841;SDS011;1936;47.074;15.336;2023-07-31T09:22:17;2.97;;;1.47;;
3841;SDS011;1936;47.074;15.336;2023-07-31T09:24:38;1.70;;;1.60;;
3841;SDS011;1936;47.074;15.336;2023-07-31T09:26:43;1.97;;;1.40;;
3841;SDS011;1936;47.074;15.336;2023-07-31T09:28:45;2.60;;;1.80;;
3841;SDS011;1936;47.074;15.336;2023-07-31T09:30:49;1.40;;;1.30;;
3841;SDS011;1936;47.074;15.336;2023-07-31T09:32:59;4.07;;;1.73;;
3841;SDS011;1936;47.074;15.336;2023-07-31T09:35:13;1.70;;;1.40;;
3841;SDS011;1936;47.074;15.336;2023-07-31T09:37:21;3.73;;;1.57;;
3841;SDS011;1936;47.074;15.336;2023-07-31T09:39:24;10.03;;;2.10;;
3841;SDS011;1936;47.074;15.336;2023-07-31T09:41:29;1.90;;;1.70;;
3841;SDS011;1936;47.074;15.336;2023-07-31T09:43:33;1.40;;;1.30;;
3841;SDS011;1936;47.074;15.336;2023-07-31T09:45:37;1.90;;;1.60;;
3841;SDS011;1936;47.074;15.336;2023-07-31T09:47:45;2.70;;;1.53;;
3841;SDS011;1936;47.074;15.336;2023-07-31T09:49:50;1.97;;;1.60;;
3841;SDS011;1936;47.074;15.336;2023-07-31T09:51:53;1.50;;;1.40;;
3841;SDS011;1936;47.074;15.336;2023-07-31T09:53:56;1.57;;;1.40;;
3841;SDS011;1936;47.074;15.336;2023-07-31T09:56:00;2.90;;;1.50;;
3841;SDS011;1936;47.074;15.336;2023-07-31T09:58:07;12.33;;;1.73;;
3841;SDS011;1936;47.074;15.336;2023-07-31T10:00:12;1.60;;;1.50;;
3841;SDS011;1936;47.074;15.336;2023-07-31T10:02:20;1.60;;;1.50;;
3841;SDS011;1936;47.074;15.336;2023-07-31T10:04:25;1.53;;;1.43;;
3841;SDS011;1936;47.074;15.336;2023-07-31T10:06:30;2.80;;;1.70;;
3841;SDS011;1936;47.074;15.336;2023-07-31T10:08:36;1.17;;;1.07;;
3841;SDS011;1936;47.074;15.336;2023-07-31T10:10:41;1.47;;;1.37;;
3841;SDS011;1936;47.074;15.336;2023-07-31T10:12:46;2.00;;;1.67;;
3841;SDS011;1936;47.074;15.336;2023-07-31T10:14:53;1.47;;;1.23;;
3841;SDS011;1936;47.074;15.336;2023-07-31T10:16:57;7.93;;;1.60;;
3841;SDS011;1936;47.074;15.336;2023-07-31T10:19:02;1.57;;;1.47;;
3841;SDS011;1936;47.074;15.336;2023-07-31T10:21:06;3.40;;;1.80;;
3841;SDS011;1936;47.074;15.336;2023-07-31T10:23:10;1.10;;;1.00;;
3841;SDS011;1936;47.074;15.336;2023-07-31T10:25:15;3.40;;;1.57;;
3841;SDS011;1936;47.074;15.336;2023-07-31T10:27:18;1.63;;;1.53;;
3841;SDS011;1936;47.074;15.336;2023-07-31T10:29:22;1.40;;;1.20;;
3841;SDS011;1936;47.074;15.336;2023-07-31T10:31:28;1.67;;;1.57;;
3841;SDS011;1936;47.074;15.336;2023-07-31T10:33:32;1.70;;;1.53;;
3841;SDS011;1936;47.074;15.336;2023-07-31T10:35:36;2.10;;;1.80;;
3841;SDS011;1936;47.074;15.336;2023-07-31T10:37:40;1.97;;;1.77;;
3841;SDS011;1936;47.074;15.336;2023-07-31T10:39:45;3.23;;;1.73;;
3841;SDS011;1936;47.074;15.336;2023-07-31T10:41:58;2.67;;;1.40;;
3841;SDS011;1936;47.074;15.336;2023-07-31T10:44:02;2.27;;;1.53;;
3841;SDS011;1936;47.074;15.336;2023-07-31T10:46:07;3.87;;;2.30;;
3841;SDS011;1936;47.074;15.336;2023-07-31T10:48:13;2.13;;;1.80;;
3841;SDS011;1936;47.074;15.336;2023-07-31T10:50:18;1.70;;;1.60;;
3841;SDS011;1936;47.074;15.336;2023-07-31T10:52:25;1.67;;;1.57;;
3841;SDS011;1936;47.074;15.336;2023-07-31T10:54:38;1.53;;;1.43;;
3841;SDS011;1936;47.074;15.336;2023-07-31T10:56:44;1.90;;;1.80;;
3841;SDS011;1936;47.074;15.336;2023-07-31T10:58:48;1.40;;;1.30;;
3841;SDS011;1936;47.074;15.336;2023-07-31T11:01:05;1.70;;;1.60;;
3841;SDS011;1936;47.074;15.336;2023-07-31T11:03:10;3.10;;;1.53;;
3841;SDS011;1936;47.074;15.336;2023-07-31T11:05:18;3.33;;;1.60;;
3841;SDS011;1936;47.074;15.336;2023-07-31T11:07:23;1.63;;;1.50;;
3841;SDS011;1936;47.074;15.336;2023-07-31T11:09:30;2.20;;;1.37;;
3841;SDS011;1936;47.074;15.336;2023-07-31T11:11:35;2.40;;;1.97;;
3841;SDS011;1936;47.074;15.336;2023-07-31T11:13:43;1.57;;;1.47;;
3841;SDS011;1936;47.074;15.336;2023-07-31T11:15:47;2.30;;;1.87;;
3841;SDS011;1936;47.074;15.336;2023-07-31T11:17:50;2.37;;;2.17;;
3841;SDS011;1936;47.074;15.336;2023-07-31T11:19:53;2.70;;;2.23;;
3841;SDS011;1936;47.074;15.336;2023-07-31T11:21:58;1.80;;;1.70;;
3841;SDS011;1936;47.074;15.336;2023-07-31T11:24:02;1.97;;;1.80;;
3841;SDS011;1936;47.074;15.336;2023-07-31T11:26:07;2.83;;;1.90;;
3841;SDS011;1936;47.074;15.336;2023-07-31T11:28:11;2.57;;;2.37;;
3841;SDS011;1936;47.074;15.336;2023-07-31T11:30:15;2.03;;;1.93;;
3841;SDS011;1936;47.074;15.336;2023-07-31T11:32:20;2.23;;;2.00;;
3841;SDS011;1936;47.074;15.336;2023-07-31T11:34:26;2.57;;;1.93;;
3841;SDS011;1936;47.074;15.336;2023-07-31T11:36:31;3.53;;;2.00;;
3841;SDS011;1936;47.074;15.336;2023-07-31T11:38:35;3.50;;;1.70;;
3841;SDS011;1936;47.074;15.336;2023-07-31T11:40:42;1.90;;;1.80;;
3841;SDS011;1936;47.074;15.336;2023-07-31T11:42:46;2.00;;;1.90;;
3841;SDS011;1936;47.074;15.336;2023-07-31T11:44:50;5.90;;;1.33;;
3841;SDS011;1936;47.074;15.336;2023-07-31T11:46:56;3.00;;;2.40;;
3841;SDS011;1936;47.074;15.336;2023-07-31T11:48:59;2.30;;;2.10;;
3841;SDS011;1936;47.074;15.336;2023-07-31T11:51:04;2.10;;;1.70;;
3841;SDS011;1936;47.074;15.336;2023-07-31T11:53:08;1.70;;;1.47;;
3841;SDS011;1936;47.074;15.336;2023-07-31T11:55:13;2.13;;;1.73;;
3841;SDS011;1936;47.074;15.336;2023-07-31T11:57:17;2.07;;;1.97;;
3841;SDS011;1936;47.074;15.336;2023-07-31T11:59:22;2.73;;;2.00;;
3841;SDS011;1936;47.074;15.336;2023-07-31T12:01:26;2.67;;;2.00;;
3841;SDS011;1936;47.074;15.336;2023-07-31T12:03:30;2.40;;;2.20;;
3841;SDS011;1936;47.074;15.336;2023-07-31T12:05:36;3.00;;;1.80;;
3841;SDS011;1936;47.074;15.336;2023-07-31T12:07:47;2.23;;;1.90;;
3841;SDS011;1936;47.074;15.336;2023-07-31T12:09:52;4.03;;;2.37;;
3841;SDS011;1936;47.074;15.336;2023-07-31T12:11:57;2.27;;;2.07;;
3841;SDS011;1936;47.074;15.336;2023-07-31T12:14:03;4.60;;;2.40;;
3841;SDS011;1936;47.074;15.336;2023-07-31T12:16:07;3.00;;;1.70;;
3841;SDS011;1936;47.074;15.336;2023-07-31T12:18:11;3.50;;;2.10;;
3841;SDS011;1936;47.074;15.336;2023-07-31T12:20:16;4.90;;;2.30;;
3841;SDS011;1936;47.074;15.336;2023-07-31T12:22:19;3.60;;;2.17;;
3841;SDS011;1936;47.074;15.336;2023-07-31T12:24:23;4.23;;;2.10;;
3841;SDS011;1936;47.074;15.336;2023-07-31T12:26:33;1.90;;;1.80;;
3841;SDS011;1936;47.074;15.336;2023-07-31T12:28:42;3.23;;;2.37;;
3841;SDS011;1936;47.074;15.336;2023-07-31T12:30:46;7.20;;;2.50;;
3841;SDS011;1936;47.074;15.336;2023-07-31T12:32:49;5.07;;;2.13;;
3841;SDS011;1936;47.074;15.336;2023-07-31T12:34:53;2.50;;;2.20;;
3841;SDS011;1936;47.074;15.336;2023-07-31T12:36:57;6.83;;;2.87;;
3841;SDS011;1936;47.074;15.336;2023-07-31T12:39:01;3.03;;;2.00;;
3841;SDS011;1936;47.074;15.336;2023-07-31T12:41:06;3.37;;;2.70;;